Time;durP1;ratioP1;P1;durP2;ratioP2;P2;SDS_P1;SDS_P2;PMS_P1;PMS_P2;Temp;Humidity;BMP_temperature;BMP_pressure;BME280_temperature;BME280_humidity;BME280_pressure;Samples;Min_cycle;Max_cycle;Signal;HPM_P1;HPM_P2
2022/12/25 00:00:42;;;;;;;7.63;5.17;;;;;;;-141.28;100.00;50236.00;5074907;28;20488;-76
2022/12/25 00:03:08;;;;;;;7.83;5.30;;;;;;;-141.28;100.00;50287.03;5074573;28;20780;-77
2022/12/25 00:05:38;;;;;;;9.17;5.20;;;;;;;-141.28;100.00;50312.53;5074587;28;20918;-77
2022/12/25 00:08:05;;;;;;;7.57;4.67;;;;;;;-141.28;100.00;50271.31;5074437;28;20454;-77
2022/12/25 00:10:33;;;;;;;7.93;5.13;;;;;;;-141.28;100.00;50190.84;5074433;28;20474;-76
2022/12/25 00:13:02;;;;;;;5.93;4.37;;;;;;;-141.28;100.00;50255.63;5074228;28;20461;-76
2022/12/25 00:15:29;;;;;;;8.00;5.13;;;;;;;-141.28;100.00;50220.28;5074920;28;20442;-75
2022/12/25 00:17:56;;;;;;;8.10;5.00;;;;;;;-141.28;100.00;50173.19;5074938;28;20461;-75
2022/12/25 00:20:23;;;;;;;6.33;4.50;;;;;;;-141.28;100.00;50016.19;5074503;28;20455;-74
2022/12/25 00:22:50;;;;;;;9.73;4.57;;;;;;;-141.28;100.00;50122.16;5073878;28;20516;-74
2022/12/25 00:25:18;;;;;;;7.10;5.07;;;;;;;-141.28;100.00;50094.69;5074328;28;20451;-76
2022/12/25 00:27:45;;;;;;;7.73;4.43;;;;;;;-141.28;100.00;50133.94;5074231;28;20883;-77
2022/12/25 00:30:14;;;;;;;6.50;4.50;;;;;;;-141.28;100.00;50039.72;5074097;28;20511;-76
2022/12/25 00:32:42;;;;;;;5.23;4.33;;;;;;;-141.28;100.00;50033.84;5073772;28;20458;-75
2022/12/25 00:35:10;;;;;;;8.80;4.37;;;;;;;-141.28;100.00;49980.84;5074107;28;20458;-75
2022/12/25 00:37:37;;;;;;;6.60;4.37;;;;;;;-141.28;100.00;49976.94;5074018;28;20446;-74
2022/12/25 00:40:05;;;;;;;6.80;4.60;;;;;;;-141.28;100.00;49933.75;5074159;28;20511;-75
2022/12/25 00:42:32;;;;;;;5.50;4.30;;;;;;;-141.28;100.00;49918.06;5073862;28;20511;-77
2022/12/25 00:45:00;;;;;;;6.70;4.50;;;;;;;-141.28;100.00;49949.44;5073185;28;20528;-77
2022/12/25 00:47:29;;;;;;;7.17;4.20;;;;;;;-141.28;100.00;49894.50;5073754;28;20472;-77
2022/12/25 00:49:56;;;;;;;6.03;4.47;;;;;;;-141.28;100.00;49884.69;5073761;28;20497;-75
2022/12/25 00:52:23;;;;;;;6.70;4.17;;;;;;;-141.28;100.00;49878.81;5073500;28;21023;-76
2022/12/25 00:54:50;;;;;;;7.83;4.63;;;;;;;-141.28;100.00;49898.44;5073615;28;20504;-75
2022/12/25 00:57:18;;;;;;;6.37;4.40;;;;;;;-141.28;100.00;49914.13;5073662;28;20453;-76
2022/12/25 00:59:46;;;;;;;9.10;5.10;;;;;;;-141.28;100.00;49890.56;5070864;28;20983;-77
2022/12/25 01:02:25;;;;;;;8.43;4.63;;;;;;;-141.28;100.00;49929.81;5063835;28;20443;-75
2022/12/25 01:04:55;;;;;;;7.03;4.90;;;;;;;-141.28;100.00;49878.81;5073784;28;20450;-76
2022/12/25 01:07:24;;;;;;;6.13;4.37;;;;;;;-141.28;100.00;49906.28;5073624;28;20898;-77
2022/12/25 01:12:39;;;;;;;6.73;4.70;;;;;;;-141.28;100.00;49847.41;5072885;28;20542;-75
2022/12/25 01:15:08;;;;;;;11.43;5.00;;;;;;;-141.28;100.00;49851.31;5073230;28;20457;-74
2022/12/25 01:17:37;;;;;;;9.53;5.50;;;;;;;-141.28;100.00;49874.88;5073376;28;20442;-78
2022/12/25 01:20:06;;;;;;;8.00;5.10;;;;;;;-141.28;100.00;49945.53;5073304;28;20454;-78
2022/12/25 01:22:33;;;;;;;7.97;4.90;;;;;;;-141.28;100.00;49998.50;5073028;28;20492;-77
2022/12/25 01:25:00;;;;;;;6.07;4.63;;;;;;;-141.28;100.00;49937.69;5072974;28;20512;-76
2022/12/25 01:27:27;;;;;;;7.53;5.00;;;;;;;-141.28;100.00;50094.69;5072666;28;20447;-79
2022/12/25 01:29:54;;;;;;;6.43;5.00;;;;;;;-141.28;100.00;50141.78;5070764;28;20965;-76
2022/12/25 01:32:22;;;;;;;7.10;4.80;;;;;;;-141.28;100.00;50194.78;5072800;28;20502;-73
2022/12/25 01:34:51;;;;;;;6.77;4.53;;;;;;;-141.28;100.00;50239.94;5072587;28;20458;-75
2022/12/25 01:37:19;;;;;;;7.53;4.40;;;;;;;-141.28;100.00;50265.44;5072858;28;20446;-75
2022/12/25 01:39:47;;;;;;;5.90;4.40;;;;;;;-141.28;100.00;50279.19;5072968;28;20442;-77
2022/12/25 01:42:17;;;;;;;5.50;3.90;;;;;;;-141.28;100.00;50263.47;5072324;28;20454;-75
2022/12/25 01:45:26;;;;;;;4.83;3.50;;;;;;;-141.28;100.00;50137.88;5073159;28;20532;-76
2022/12/25 01:47:53;;;;;;;5.80;3.73;;;;;;;-141.28;100.00;50027.97;5072812;28;20454;-75
2022/12/25 01:50:21;;;;;;;5.83;3.60;;;;;;;-141.28;100.00;50094.69;5072458;28;20539;-75
2022/12/25 01:52:51;;;;;;;5.37;3.60;;;;;;;-141.28;100.00;50098.63;5072267;28;20502;-79
2022/12/25 01:55:19;;;;;;;4.87;3.60;;;;;;;-141.28;100.00;50122.16;5072419;28;20455;-77
2022/12/25 01:57:46;;;;;;;6.87;3.83;;;;;;;-141.28;100.00;50102.53;5072294;28;20450;-74
2022/12/25 02:00:15;;;;;;;5.07;3.60;;;;;;;-141.28;100.00;50124.13;5073292;28;20450;-76
2022/12/25 02:02:44;;;;;;;5.80;3.63;;;;;;;-141.28;100.00;49796.38;5077924;28;20510;-74
2022/12/25 02:05:17;;;;;;;6.70;3.77;;;;;;;-141.28;100.00;50067.22;5063637;28;20510;-75
2022/12/25 02:07:47;;;;;;;6.03;4.00;;;;;;;-141.28;100.00;50069.16;5072389;28;20523;-77
2022/12/25 02:10:15;;;;;;;5.40;3.60;;;;;;;-141.28;100.00;50018.16;5072065;28;20454;-79
2022/12/25 02:12:44;;;;;;;8.07;4.43;;;;;;;-141.28;100.00;50110.38;5071724;28;20486;-75
2022/12/25 02:15:15;;;;;;;5.23;3.87;;;;;;;-141.28;100.00;50004.41;5054375;28;20963;-78
2022/12/25 02:17:50;;;;;;;7.97;4.43;;;;;;;-141.28;100.00;50116.28;5071832;28;20447;-77
2022/12/25 02:21:03;;;;;;;6.03;3.50;;;;;;;-141.28;100.00;50027.97;5074147;28;20512;-78
2022/12/25 02:23:55;;;;;;;8.40;4.37;;;;;;;-141.28;100.00;49835.63;5071847;28;20470;-75
2022/12/25 02:26:48;;;;;;;6.40;3.83;;;;;;;-141.28;100.00;49788.53;5061755;28;20442;-74
2022/12/25 02:29:23;;;;;;;6.40;4.40;;;;;;;-141.28;100.00;49827.78;5071547;28;20439;-78
2022/12/25 02:31:58;;;;;;;6.87;4.10;;;;;;;-141.28;100.00;49878.81;5072169;28;21011;-76
2022/12/25 02:34:34;;;;;;;6.13;4.23;;;;;;;-141.28;100.00;49914.13;5075106;28;20478;-76
2022/12/25 02:37:07;;;;;;;8.87;4.20;;;;;;;-141.28;100.00;49910.19;5075260;28;20446;-79
2022/12/25 02:39:58;;;;;;;5.57;4.03;;;;;;;-141.28;100.00;49957.31;5075529;28;20458;-75
2022/12/25 03:07:44;;;;;;;6.17;3.93;;;;;;;-141.28;100.00;49535.38;5071744;28;20438;-75
2022/12/25 03:13:07;;;;;;;6.63;3.40;;;;;;;-141.28;100.00;49721.81;5071997;28;20481;-78
2022/12/25 03:18:25;;;;;;;5.03;3.70;;;;;;;-141.28;100.00;49776.75;5071429;28;20824;-75
2022/12/25 03:31:10;;;;;;;9.30;3.93;;;;;;;-141.28;100.00;49698.25;5071349;28;20451;-75
2022/12/25 03:32:06;;;;;;;5.10;3.73;;;;;;;-141.28;100.00;49702.19;5070649;28;20929;-77
2022/12/25 04:36:10;;;;;;;5.10;4.23;;;;;;;-141.28;100.00;49996.56;5074180;28;20441;-74
2022/12/25 04:38:39;;;;;;;9.40;4.67;;;;;;;-141.28;100.00;50000.47;5070967;28;20442;-78
2022/12/25 04:41:11;;;;;;;6.37;4.53;;;;;;;-141.28;100.00;50171.22;5074338;28;20443;-75
2022/12/25 04:43:38;;;;;;;7.00;4.10;;;;;;;-141.28;100.00;50357.69;5074110;28;20926;-77
2022/12/25 04:46:06;;;;;;;6.00;4.10;;;;;;;-141.28;100.00;50336.09;5073883;28;20446;-75
2022/12/25 04:48:35;;;;;;;5.63;4.33;;;;;;;-141.28;100.00;50451.91;5073600;28;20454;-75
2022/12/25 04:51:11;;;;;;;7.93;4.53;;;;;;;-141.28;100.00;50416.56;5073183;28;20498;-75
2022/12/25 04:53:38;;;;;;;6.83;4.30;;;;;;;-141.28;100.00;50479.38;5063567;28;20527;-73
2022/12/25 04:56:05;;;;;;;6.87;4.30;;;;;;;-141.28;100.00;50499.00;5073524;28;20443;-74
2022/12/25 04:58:36;;;;;;;6.33;4.53;;;;;;;-141.28;100.00;50546.13;5073794;28;20540;-75
2022/12/25 05:01:04;;;;;;;7.37;4.50;;;;;;;-141.28;100.00;50573.59;5073695;28;20496;-77
2022/12/25 05:03:32;;;;;;;6.30;4.40;;;;;;;-141.28;100.00;50591.28;5073612;28;20446;-75
2022/12/25 05:05:59;;;;;;;8.57;4.23;;;;;;;-141.28;100.00;50640.34;5073034;28;20459;-74
2022/12/25 05:08:30;;;;;;;7.33;4.43;;;;;;;-141.28;100.00;50656.06;5073803;28;20500;-77
2022/12/25 05:10:57;;;;;;;11.40;4.57;;;;;;;-141.28;100.00;50451.91;5073604;28;20445;-76
2022/12/25 05:13:25;;;;;;;7.90;4.37;;;;;;;-141.28;100.00;50703.16;5073500;28;21079;-76
2022/12/25 05:15:53;;;;;;;7.73;4.60;;;;;;;-141.28;100.00;50455.84;5074078;28;20450;-76
2022/12/25 05:18:20;;;;;;;6.40;4.40;;;;;;;-141.28;100.00;50699.22;5074956;28;20442;-76
2022/12/25 05:20:52;;;;;;;5.73;4.20;;;;;;;-141.28;100.00;50693.34;5077294;28;20969;-74
2022/12/25 05:23:21;;;;;;;5.40;3.83;;;;;;;-141.28;100.00;50699.22;5078222;28;20525;-74
2022/12/25 05:25:48;;;;;;;7.73;4.10;;;;;;;-141.28;100.00;50722.78;5079122;28;20451;-75
2022/12/25 05:28:16;;;;;;;6.80;3.03;;;;;;;-141.28;100.00;50712.97;5078089;28;20454;-74
2022/12/25 05:30:42;;;;;;;4.50;3.37;;;;;;;-141.28;100.00;50667.81;5074953;28;20962;-78
2022/12/25 05:33:12;;;;;;;6.20;3.87;;;;;;;-141.28;100.00;50573.59;5072693;28;20505;-77
2022/12/25 05:35:39;;;;;;;5.60;3.77;;;;;;;-141.28;100.00;50557.91;5060120;28;20443;-79
2022/12/25 05:38:07;;;;;;;5.73;3.43;;;;;;;-141.28;100.00;50361.63;5072263;28;20455;-79
2022/12/25 05:40:34;;;;;;;6.20;3.90;;;;;;;-141.28;100.00;50510.78;5072492;28;20508;-78
2022/12/25 05:43:02;;;;;;;5.37;3.63;;;;;;;-141.28;100.00;50479.38;5072573;28;20961;-78
2022/12/25 05:45:29;;;;;;;4.97;3.60;;;;;;;-141.28;100.00;50404.81;5060199;28;20451;-75
2022/12/25 05:47:55;;;;;;;6.97;3.57;;;;;;;-141.28;100.00;50485.28;5078702;28;20829;-75
2022/12/25 05:50:25;;;;;;;5.80;3.50;;;;;;;-141.28;100.00;50471.53;5077640;28;20996;-75
2022/12/25 05:52:52;;;;;;;4.47;3.07;;;;;;;-141.28;100.00;50444.06;5078978;28;20482;-73
2022/12/25 05:55:19;;;;;;;5.80;3.30;;;;;;;-141.28;100.00;50420.50;5077488;28;20580;-75
2022/12/25 05:57:47;;;;;;;6.00;3.70;;;;;;;-141.28;100.00;50396.94;5072442;28;20481;-77
2022/12/25 06:00:14;;;;;;;7.87;4.00;;;;;;;-141.28;100.00;50365.53;5072145;28;20463;-78
2022/12/25 06:02:42;;;;;;;10.00;4.50;;;;;;;-141.28;100.00;50353.75;5072246;28;20507;-77
2022/12/25 06:05:09;;;;;;;5.87;3.67;;;;;;;-141.28;100.00;50385.16;5072574;28;20450;-76
2022/12/25 06:07:37;;;;;;;5.53;4.30;;;;;;;-141.28;100.00;50330.22;5072034;28;20461;-77
2022/12/25 06:10:05;;;;;;;9.47;4.73;;;;;;;-141.28;100.00;50330.22;5073735;28;20968;-74
2022/12/25 06:12:32;;;;;;;8.13;5.17;;;;;;;-141.28;100.00;50306.66;5071884;28;20539;-74
2022/12/25 06:14:59;;;;;;;10.30;5.70;;;;;;;-141.28;100.00;50318.44;5072478;28;20508;-76
2022/12/25 06:17:27;;;;;;;8.47;5.03;;;;;;;-141.28;100.00;50294.88;5072022;28;20831;-78
2022/12/25 06:19:56;;;;;;;5.83;4.30;;;;;;;-141.28;100.00;50377.31;5071683;28;20854;-77
2022/12/25 06:22:23;;;;;;;6.00;4.27;;;;;;;-141.28;100.00;50510.78;5071982;28;20984;-76
2022/12/25 06:24:51;;;;;;;15.17;5.60;;;;;;;-141.28;100.00;50781.69;5071537;28;20451;-75
2022/12/25 06:27:18;;;;;;;7.20;4.53;;;;;;;-141.28;100.00;51299.97;5072556;28;20450;-76
2022/12/25 06:29:45;;;;;;;8.40;5.10;;;;;;;-141.28;100.00;51637.69;5072004;28;20515;-75
2022/12/25 06:32:13;;;;;;;9.40;4.87;;;;;;;-141.28;100.00;51468.81;5072342;28;20516;-75
2022/12/25 06:34:40;;;;;;;8.47;5.93;;;;;;;-141.28;100.00;51078.13;5076340;28;20446;-76
2022/12/25 06:37:07;;;;;;;8.30;5.73;;;;;;;-141.28;100.00;50989.78;5074352;28;21007;-76
2022/12/25 06:39:34;;;;;;;11.67;6.67;;;;;;;-141.28;100.00;51172.34;5071738;28;20533;-78
2022/12/25 06:42:02;;;;;;;11.83;6.10;;;;;;;-141.28;100.00;51700.50;5070574;28;20447;-75
2022/12/25 06:44:32;;;;;;;9.93;6.47;;;;;;;-141.28;100.00;51906.69;5071549;28;20200;-78
2022/12/25 06:47:00;;;;;;;11.97;7.23;;;;;;;-141.28;100.00;51920.44;5071694;28;20283;-75
2022/12/25 06:49:27;;;;;;;11.93;8.23;;;;;;;-141.28;100.00;51812.44;5071559;28;20259;-76
2022/12/25 06:51:54;;;;;;;13.20;8.63;;;;;;;-141.28;100.00;51590.56;5071053;28;20667;-78
2022/12/25 06:54:21;;;;;;;16.80;9.57;;;;;;;-141.28;100.00;51307.81;5071804;28;20230;-76
2022/12/25 06:56:49;;;;;;;14.73;9.13;;;;;;;-141.28;100.00;51076.16;5071636;28;20689;-77
2022/12/25 06:59:18;;;;;;;16.73;9.30;;;;;;;-141.28;100.00;50762.06;5071715;28;20361;-75
2022/12/25 07:01:52;;;;;;;16.33;9.30;;;;;;;-141.28;100.00;50644.28;5071821;28;20271;-76
2022/12/25 07:04:23;;;;;;;15.67;9.33;;;;;;;-141.28;100.00;50679.59;5071543;28;20199;-76
2022/12/25 07:06:50;;;;;;;13.27;9.70;;;;;;;-141.28;100.00;50573.59;5071472;28;20203;-77
2022/12/25 07:09:18;;;;;;;15.37;9.33;;;;;;;-141.28;100.00;50687.47;5071984;28;20201;-79
2022/12/25 07:11:45;;;;;;;14.47;8.83;;;;;;;-141.28;100.00;50868.06;5071650;28;20204;-77
2022/12/25 07:14:19;;;;;;;10.60;7.67;;;;;;;-141.28;100.00;50773.81;5070711;28;20232;-76
2022/12/25 07:16:46;;;;;;;11.10;6.80;;;;;;;-141.28;100.00;50871.97;5071709;28;20265;-76
2022/12/25 07:19:14;;;;;;;10.30;6.80;;;;;;;-141.28;100.00;50966.22;5070887;28;20200;-75
2022/12/25 07:21:41;;;;;;;9.03;5.57;;;;;;;-141.28;100.00;51142.91;5071289;28;20700;-75
2022/12/25 07:24:09;;;;;;;9.63;6.07;;;;;;;-141.28;100.00;51140.94;5070831;28;20253;-74
2022/12/25 07:26:36;;;;;;;9.30;6.50;;;;;;;-141.28;100.00;51270.50;5074076;28;20196;-76
2022/12/25 07:29:03;;;;;;;8.53;6.40;;;;;;;-141.28;100.00;51327.44;5071034;28;20214;-77
2022/12/25 07:31:32;;;;;;;5.37;3.40;;;;;;;-141.28;100.00;51248.91;5070918;28;20196;-77
2022/12/25 07:34:00;;;;;;;3.93;2.93;;;;;;;-141.28;100.00;51162.53;5070826;28;20228;-80
2022/12/25 07:36:27;;;;;;;4.77;2.70;;;;;;;-141.28;100.00;51268.56;5071212;28;20675;-77
2022/12/25 07:38:55;;;;;;;6.47;2.40;;;;;;;-141.28;100.00;51451.16;5070988;28;20196;-76
2022/12/25 07:41:22;;;;;;;4.43;2.40;;;;;;;-141.28;100.00;51476.66;5071305;28;20224;-76
2022/12/25 07:43:51;;;;;;;4.90;2.60;;;;;;;-141.28;100.00;51413.84;5071025;28;20208;-75
2022/12/25 07:46:18;;;;;;;4.30;2.70;;;;;;;-141.28;100.00;51358.88;5070617;28;20637;-79
2022/12/25 07:48:47;;;;;;;4.97;2.57;;;;;;;-141.28;100.00;51068.28;5071249;28;20200;-79
2022/12/25 07:51:16;;;;;;;5.07;2.60;;;;;;;-141.28;100.00;51044.75;5053109;28;20236;-78
2022/12/25 07:53:43;;;;;;;4.20;2.67;;;;;;;-141.28;100.00;51170.38;5072005;28;20265;-77
2022/12/25 07:56:13;;;;;;;4.80;2.30;;;;;;;-141.28;100.00;51374.56;5074687;28;20211;-74
2022/12/25 07:58:40;;;;;;;6.03;2.40;;;;;;;-141.28;100.00;51539.50;5074420;28;20196;-76
2022/12/25 08:01:08;;;;;;;4.60;2.90;;;;;;;-141.28;100.00;51684.81;5075221;28;20257;-76
2022/12/25 08:03:36;;;;;;;7.03;2.13;;;;;;;-141.28;100.00;51826.19;5074755;28;20639;-75
2022/12/25 08:06:07;;;;;;;4.87;2.60;;;;;;;-141.28;100.00;51885.09;5074257;28;20667;-75
2022/12/25 08:08:37;;;;;;;5.43;2.27;;;;;;;-141.28;100.00;51908.66;5074462;28;20445;-75
2022/12/25 08:11:06;;;;;;;4.90;2.20;;;;;;;-141.28;100.00;51877.25;5074326;28;20626;-76
2022/12/25 08:13:34;;;;;;;4.03;2.37;;;;;;;-141.28;100.00;51775.13;5074232;28;20496;-74
2022/12/25 08:16:06;;;;;;;4.17;2.60;;;;;;;-141.28;100.00;51688.72;5073894;28;20298;-78
2022/12/25 08:18:34;;;;;;;5.80;2.90;;;;;;;-141.28;100.00;51551.28;5074527;28;20482;-76
2022/12/25 08:21:03;;;;;;;5.43;2.73;;;;;;;-141.28;100.00;51390.28;5075187;28;20450;-76
2022/12/25 08:23:34;;;;;;;7.23;2.43;;;;;;;-141.28;100.00;51282.28;5078429;28;20462;-74
2022/12/25 08:26:02;;;;;;;5.47;2.40;;;;;;;-141.28;100.00;51109.53;5079328;28;20474;-73
2022/12/25 08:28:29;;;;;;;4.77;2.50;;;;;;;-141.28;100.00;50923.03;5076914;28;20442;-77
2022/12/25 08:30:57;;;;;;;8.73;2.70;;;;;;;-141.28;100.00;50818.97;5075504;28;20469;-77
2022/12/25 08:33:24;;;;;;;5.37;2.70;;;;;;;-141.28;100.00;50742.41;5074113;28;20487;-78
2022/12/25 08:35:55;;;;;;;5.23;2.67;;;;;;;-141.28;100.00;50626.59;5074879;28;20454;-77
2022/12/25 08:38:22;;;;;;;14.43;2.10;;;;;;;-141.28;100.00;50573.59;5073321;28;20842;-78
2022/12/25 08:40:51;;;;;;;2.37;1.77;;;;;;;-141.28;100.00;50479.38;5074349;28;20451;-73
2022/12/25 08:43:18;;;;;;;5.03;2.30;;;;;;;-141.28;100.00;50408.72;5075288;28;20446;-74
2022/12/25 08:45:47;;;;;;;4.00;2.37;;;;;;;-141.28;100.00;50359.66;5074011;28;20435;-76
2022/12/25 08:48:15;;;;;;;4.33;2.00;;;;;;;-141.28;100.00;50318.44;5074206;28;20450;-78
2022/12/25 08:50:45;;;;;;;5.60;2.20;;;;;;;-141.28;100.00;50302.72;5073537;28;20548;-74
2022/12/25 08:53:13;;;;;;;2.20;1.83;;;;;;;-141.28;100.00;50292.91;5074205;28;20500;-76
2022/12/25 08:55:40;;;;;;;4.57;2.53;;;;;;;-141.28;100.00;50267.41;5073348;28;20450;-75
2022/12/25 08:58:08;;;;;;;2.93;1.83;;;;;;;-141.28;100.00;50208.53;5073633;28;20450;-76
2022/12/25 09:00:36;;;;;;;4.87;2.30;;;;;;;-141.28;100.00;50169.28;5073206;28;20858;-77
2022/12/25 09:03:03;;;;;;;4.03;2.47;;;;;;;-141.28;100.00;50190.84;5073355;28;20452;-76
2022/12/25 09:05:30;;;;;;;4.80;2.40;;;;;;;-141.28;100.00;50184.97;5054603;28;20461;-75
2022/12/25 09:07:57;;;;;;;5.03;2.33;;;;;;;-141.28;100.00;50149.63;5073696;28;20442;-75
2022/12/25 09:10:33;;;;;;;4.77;2.20;;;;;;;-141.28;100.00;50190.84;5073382;28;20534;-81
2022/12/25 09:13:00;;;;;;;4.03;2.30;;;;;;;-141.28;100.00;50157.50;5071599;28;20482;-77
2022/12/25 09:15:29;;;;;;;5.93;2.23;;;;;;;-141.28;100.00;50128.06;5072895;28;20446;-75
2022/12/25 09:17:56;;;;;;;4.83;2.20;;;;;;;-141.28;100.00;50173.19;5073205;28;20508;-76
2022/12/25 09:20:23;;;;;;;6.73;2.60;;;;;;;-141.28;100.00;50149.63;5072685;28;20456;-74
2022/12/25 09:22:50;;;;;;;4.77;3.20;;;;;;;-141.28;100.00;50118.25;5073433;28;20461;-75
2022/12/25 09:25:17;;;;;;;3.97;1.80;;;;;;;-141.28;100.00;50133.94;5072974;28;20538;-75
2022/12/25 09:27:44;;;;;;;4.37;1.87;;;;;;;-141.28;100.00;50149.63;5073321;28;20434;-77
2022/12/25 09:30:11;;;;;;;3.10;1.93;;;;;;;-141.28;100.00;50114.31;5072994;28;20561;-76
2022/12/25 09:32:40;;;;;;;3.80;2.10;;;;;;;-141.28;100.00;50145.72;5072749;28;21106;-77
2022/12/25 09:35:08;;;;;;;4.07;2.20;;;;;;;-141.28;100.00;50145.72;5072818;28;20574;-74
2022/12/25 09:37:35;;;;;;;2.97;1.80;;;;;;;-141.28;100.00;50145.72;5077445;28;20504;-75
2022/12/25 09:40:03;;;;;;;3.47;2.30;;;;;;;-141.28;100.00;50139.81;5079809;28;20446;-75
2022/12/25 09:42:33;;;;;;;8.03;2.53;;;;;;;-141.28;100.00;50198.72;5080320;28;20476;-75
2022/12/25 09:45:04;;;;;;;3.60;1.80;;;;;;;-141.28;100.00;50165.34;5072807;28;20459;-75
2022/12/25 09:47:35;;;;;;;5.27;2.03;;;;;;;-141.28;100.00;50192.81;5072509;28;20212;-78
2022/12/25 09:50:10;;;;;;;3.57;1.60;;;;;;;-141.28;100.00;50228.16;5072610;28;20506;-77
2022/12/25 09:52:43;;;;;;;2.90;1.63;;;;;;;-141.28;100.00;50259.56;5072940;28;20445;-75
2022/12/25 09:55:14;;;;;;;3.70;2.10;;;;;;;-141.28;100.00;50259.56;5060371;28;20493;-78
2022/12/25 09:57:41;;;;;;;2.27;1.50;;;;;;;-141.28;100.00;50255.63;5074772;28;20439;-74
2022/12/25 10:00:15;;;;;;;3.07;2.10;;;;;;;-141.28;100.00;50257.59;5075246;28;20455;-75
2022/12/25 10:03:09;;;;;;;5.10;1.87;;;;;;;-141.28;100.00;50277.22;5069933;28;20943;-76
2022/12/25 10:08:57;;;;;;;3.77;1.90;;;;;;;-141.28;100.00;50078.97;5076354;27;20533;-79
2022/12/25 10:11:39;;;;;;;3.03;1.50;;;;;;;-141.28;100.00;50192.81;5077301;28;20450;-75
2022/12/25 10:14:17;;;;;;;2.33;1.70;;;;;;;-141.28;100.00;50328.25;5057950;28;20469;-78
2022/12/25 10:16:54;;;;;;;3.30;1.77;;;;;;;-141.28;100.00;50412.66;5070247;28;20238;-78
2022/12/25 10:19:34;;;;;;;4.30;1.50;;;;;;;-141.28;100.00;50461.72;5069623;28;20724;-76
2022/12/25 10:22:08;;;;;;;4.57;2.20;;;;;;;-141.28;100.00;50520.59;5055565;28;20192;-77
2022/12/25 10:24:41;;;;;;;4.83;2.20;;;;;;;-141.28;100.00;50597.16;5068950;28;20258;-75
2022/12/25 10:27:17;;;;;;;3.40;2.07;;;;;;;-141.28;100.00;50659.97;5069120;28;20235;-76
2022/12/25 10:29:47;;;;;;;2.93;1.83;;;;;;;-141.28;100.00;50707.09;5069304;28;20282;-76
2022/12/25 10:32:15;;;;;;;2.80;1.83;;;;;;;-141.28;100.00;50711.00;5069498;28;20226;-77
2022/12/25 10:34:42;;;;;;;3.83;1.53;;;;;;;-141.28;100.00;50777.75;5069359;28;20192;-75
2022/12/25 10:37:11;;;;;;;4.37;1.70;;;;;;;-141.28;100.00;51135.03;5064380;28;20204;-75
2022/12/25 10:39:40;;;;;;;5.07;2.30;;;;;;;-141.28;100.00;51802.63;5061428;28;20204;-77
2022/12/25 10:42:29;;;;;;;5.30;2.00;;;;;;;-141.28;100.00;52022.56;5069300;28;20220;-76
2022/12/25 10:44:58;;;;;;;4.47;1.77;;;;;;;-141.28;100.00;51991.13;5070906;28;20291;-78
2022/12/25 10:47:29;;;;;;;2.73;1.70;;;;;;;-141.28;100.00;51902.75;5088163;28;20219;-75
2022/12/25 10:49:58;;;;;;;6.57;2.67;;;;;;;-141.28;100.00;51712.28;5070835;28;20205;-80
2022/12/25 10:52:27;;;;;;;5.23;2.50;;;;;;;-141.28;100.00;51661.25;5068349;28;20209;-77
2022/12/25 10:54:56;;;;;;;4.37;2.57;;;;;;;-141.28;100.00;51280.34;5081322;28;20207;-76
2022/12/25 10:57:25;;;;;;;3.60;2.30;;;;;;;-141.28;100.00;50795.41;5068478;28;20208;-80
2022/12/25 10:59:55;;;;;;;3.03;1.90;;;;;;;-141.28;100.00;50546.13;5081574;28;20652;-75
2022/12/25 11:02:27;;;;;;;2.27;1.70;;;;;;;-141.28;100.00;50538.28;5068262;28;20250;-78
2022/12/25 11:05:01;;;;;;;4.13;2.37;;;;;;;-141.28;100.00;50491.16;5055272;28;20624;-78
2022/12/25 11:07:29;;;;;;;3.03;1.70;;;;;;;-141.28;100.00;50457.78;5068831;28;20313;-75
2022/12/25 11:10:00;;;;;;;4.33;2.47;;;;;;;-141.28;100.00;50581.47;5088113;28;20269;-76
2022/12/25 11:12:31;;;;;;;5.77;2.50;;;;;;;-141.28;100.00;50852.34;5087916;28;20200;-75
2022/12/25 11:15:00;;;;;;;3.13;2.07;;;;;;;-141.28;100.00;50640.34;5088506;28;20614;-78
2022/12/25 11:17:27;;;;;;;3.17;2.00;;;;;;;-141.28;100.00;50467.59;5085436;28;20199;-75
2022/12/25 11:19:56;;;;;;;3.50;2.20;;;;;;;-141.28;100.00;50467.59;5073873;28;20219;-79
2022/12/25 11:22:23;;;;;;;2.30;1.80;;;;;;;-141.28;100.00;50577.53;5061701;28;20207;-76
2022/12/25 11:24:50;;;;;;;2.40;1.83;;;;;;;-141.28;100.00;50550.06;5073327;28;20262;-79
2022/12/25 11:27:34;;;;;;;2.63;2.00;;;;;;;-141.28;100.00;50442.09;5074323;28;20228;-79
2022/12/25 11:30:03;;;;;;;1.87;1.30;;;;;;;-141.28;100.00;50322.34;5069976;28;20192;-79
2022/12/25 11:32:37;;;;;;;3.70;1.40;;;;;;;-141.28;100.00;50334.13;5064949;28;20695;-77
2022/12/25 11:35:12;;;;;;;2.87;1.63;;;;;;;-141.28;100.00;50222.25;5073055;28;20192;-75
2022/12/25 11:37:44;;;;;;;2.80;1.87;;;;;;;-141.28;100.00;49943.56;5056336;28;20664;-76
2022/12/25 11:40:15;;;;;;;2.87;1.93;;;;;;;-141.28;100.00;49761.06;5051050;28;20246;-77
2022/12/25 11:42:49;;;;;;;4.30;2.00;;;;;;;-141.28;100.00;50035.81;5054654;28;20662;-78
2022/12/25 11:45:20;;;;;;;2.10;1.60;;;;;;;-141.28;100.00;50255.63;5072410;28;20192;-75
2022/12/25 11:47:51;;;;;;;6.60;1.67;;;;;;;-141.28;100.00;50481.34;5074022;28;20591;-76
2022/12/25 11:50:25;;;;;;;2.90;1.73;;;;;;;-141.28;100.00;50446.03;5065688;28;20200;-77
2022/12/25 11:52:52;;;;;;;5.03;2.50;;;;;;;-141.28;100.00;50271.31;5068525;28;20623;-76
2022/12/25 11:55:26;;;;;;;5.40;2.27;;;;;;;-141.28;100.00;49800.31;5073788;28;20295;-79
2022/12/25 11:58:01;;;;;;;3.33;1.70;;;;;;;-141.28;100.00;49553.03;5065670;28;20262;-75
2022/12/25 12:00:30;;;;;;;3.50;2.50;;;;;;;-141.28;100.00;49329.34;5053791;28;20711;-79
2022/12/25 12:03:04;;;;;;;2.97;1.80;;;;;;;-141.28;100.00;49403.91;5052440;28;20205;-77
2022/12/25 12:05:37;;;;;;;3.10;2.10;;;;;;;-141.28;100.00;49431.38;5053632;28;20717;-75
2022/12/25 12:08:07;;;;;;;4.13;2.20;;;;;;;-141.28;100.00;49735.53;5054005;28;20236;-79
2022/12/25 12:10:50;;;;;;;3.10;2.40;;;;;;;-141.28;100.00;49527.53;5054182;28;20204;-76
2022/12/25 12:13:28;;;;;;;3.80;1.77;;;;;;;-141.28;100.00;49423.53;5054108;28;20274;-75
2022/12/25 12:15:56;;;;;;;6.03;2.73;;;;;;;-141.28;100.00;49492.22;5053973;28;20663;-78
2022/12/25 12:18:30;;;;;;;3.60;2.10;;;;;;;-141.28;100.00;49568.75;5054787;28;20224;-79
2022/12/25 12:21:00;;;;;;;3.70;2.30;;;;;;;-141.28;100.00;49747.31;5069200;28;20547;-79
2022/12/25 12:23:29;;;;;;;5.13;2.10;;;;;;;-141.28;100.00;49527.53;5068783;28;20234;-78
2022/12/25 12:25:57;;;;;;;2.93;2.20;;;;;;;-141.28;100.00;49256.75;5073300;28;20209;-76
2022/12/25 12:28:27;;;;;;;3.13;1.90;;;;;;;-141.28;100.00;49089.97;5059258;28;20255;-76
2022/12/25 12:31:03;;;;;;;4.57;1.90;;;;;;;-141.28;100.00;49295.97;5052489;28;20197;-75
2022/12/25 12:33:36;;;;;;;2.73;1.80;;;;;;;-141.28;100.00;49195.91;5060940;28;20690;-78
2022/12/25 12:36:04;;;;;;;3.13;1.70;;;;;;;-141.28;100.00;49199.84;5070168;28;20208;-77
2022/12/25 12:38:33;;;;;;;6.63;2.10;;;;;;;-141.28;100.00;49176.28;5041023;28;20247;-78
2022/12/25 12:41:03;;;;;;;3.77;1.77;;;;;;;-141.28;100.00;49239.09;5063962;28;20215;-77
2022/12/25 12:43:36;;;;;;;3.37;2.00;;;;;;;-141.28;100.00;49223.38;5054652;28;20262;-75
2022/12/25 12:46:07;;;;;;;2.90;1.70;;;;;;;-141.28;100.00;49176.28;5052779;28;20262;-77
2022/12/25 12:48:41;;;;;;;3.10;1.80;;;;;;;-141.28;100.00;49241.03;5053415;28;20228;-75
2022/12/25 12:51:10;;;;;;;2.93;2.00;;;;;;;-141.28;93.65;49180.22;5052997;28;20292;-77
2022/12/25 12:53:38;;;;;;;3.27;2.23;;;;;;;-141.28;92.11;49158.63;5052745;28;20309;-79
2022/12/25 12:56:10;;;;;;;2.80;2.10;;;;;;;-141.28;89.63;49821.88;5054141;28;20250;-77
2022/12/25 12:58:47;;;;;;;4.00;2.30;;;;;;;-141.28;86.05;49182.19;5063790;28;20262;-76
2022/12/25 13:01:24;;;;;;;3.57;2.00;;;;;;;-141.28;81.45;49195.91;5069687;28;20275;-75
2022/12/25 13:04:08;;;;;;;2.87;2.13;;;;;;;-141.28;91.09;49237.13;5072488;28;20203;-79
2022/12/25 13:06:42;;;;;;;4.90;3.33;;;;;;;-141.28;94.36;49288.13;5040428;28;20211;-77
2022/12/25 13:09:24;;;;;;;7.23;3.00;;;;;;;-141.28;100.00;49301.88;5054171;28;20703;-77